createdAt,value
2023-05-07T00:00:41.257Z,2.88
2023-05-07T00:03:07.943Z,4.43
2023-05-07T00:05:34.528Z,2.78
2023-05-07T00:08:00.883Z,4.57
2023-05-07T00:10:27.423Z,6.05
2023-05-07T00:12:53.813Z,2.92
2023-05-07T00:15:20.627Z,5.28
2023-05-07T00:17:46.989Z,4.10
2023-05-07T00:20:13.663Z,4.53
2023-05-07T00:22:40.157Z,8.05
2023-05-07T00:25:06.753Z,3.72
2023-05-07T00:27:33.320Z,2.72
2023-05-07T00:29:59.641Z,5.75
2023-05-07T00:32:26.044Z,2.30
2023-05-07T00:34:52.433Z,6.03
2023-05-07T00:37:18.778Z,2.80
2023-05-07T00:39:45.160Z,3.90
2023-05-07T00:42:11.544Z,3.33
2023-05-07T00:44:37.934Z,3.25
2023-05-07T00:47:05.895Z,3.47
2023-05-07T00:49:42.250Z,3.55
2023-05-07T00:52:16.663Z,5.15
2023-05-07T00:54:43.671Z,6.88
2023-05-07T00:57:12.191Z,3.58
2023-05-07T00:59:39.187Z,4.97
2023-05-07T01:02:05.596Z,5.95
2023-05-07T01:04:32.082Z,2.50
2023-05-07T01:07:00.702Z,4.63
2023-05-07T01:09:28.873Z,2.55
2023-05-07T01:11:58.201Z,3.60
2023-05-07T01:14:25.495Z,2.88
2023-05-07T01:16:54.844Z,4.10
2023-05-07T01:19:23.657Z,3.72
2023-05-07T01:21:52.050Z,4.63
2023-05-07T01:24:19.964Z,4.00
2023-05-07T01:26:46.561Z,7.15
2023-05-07T01:29:15.612Z,4.18
2023-05-07T01:31:43.813Z,4.22
2023-05-07T01:34:13.342Z,3.47
2023-05-07T01:36:40.867Z,3.40
2023-05-07T01:39:07.718Z,8.18
2023-05-07T01:41:34.649Z,6.18
2023-05-07T01:44:02.318Z,2.90
2023-05-07T01:46:29.529Z,4.35
2023-05-07T01:48:56.077Z,4.30
2023-05-07T01:51:23.275Z,5.18
2023-05-07T01:53:51.720Z,5.68
2023-05-07T01:56:20.030Z,2.90
2023-05-07T01:58:47.326Z,3.53
2023-05-07T02:01:15.282Z,3.40
2023-05-07T02:03:43.175Z,3.90
2023-05-07T02:06:17.215Z,4.93
2023-05-07T02:08:43.799Z,5.13
2023-05-07T02:11:11.524Z,3.90
2023-05-07T02:13:38.020Z,4.78
2023-05-07T02:16:05.107Z,3.45
2023-05-07T02:18:31.605Z,4.82
2023-05-07T02:20:58.403Z,3.65
2023-05-07T02:23:24.869Z,7.30
2023-05-07T02:25:52.029Z,5.32
2023-05-07T02:28:18.451Z,3.47
2023-05-07T02:31:05.181Z,3.75
2023-05-07T02:33:32.322Z,4.15
2023-05-07T02:36:07.013Z,4.15
2023-05-07T02:38:35.223Z,4.40
2023-05-07T02:41:01.737Z,5.70
2023-05-07T02:43:28.315Z,4.35
2023-05-07T02:46:05.620Z,6.20
2023-05-07T02:48:34.307Z,4.45
2023-05-07T02:51:01.411Z,5.03
2023-05-07T02:53:28.144Z,6.70
2023-05-07T02:55:55.391Z,3.33
2023-05-07T02:58:21.740Z,5.30
2023-05-07T03:00:48.186Z,5.18
2023-05-07T03:03:23.369Z,4.85
2023-05-07T03:05:50.080Z,3.33
2023-05-07T03:08:16.442Z,4.90
2023-05-07T03:10:42.805Z,3.88
2023-05-07T03:13:09.412Z,5.95
2023-05-07T03:15:35.953Z,6.53
2023-05-07T03:18:02.468Z,5.20
2023-05-07T03:20:28.942Z,7.70
2023-05-07T03:22:57.042Z,5.72
2023-05-07T03:25:23.427Z,4.30
2023-05-07T03:27:50.012Z,4.47
2023-05-07T03:30:20.117Z,4.53
2023-05-07T03:32:46.645Z,7.60
2023-05-07T03:35:13.212Z,5.25
2023-05-07T03:37:41.079Z,6.38
2023-05-07T03:40:10.469Z,9.32
2023-05-07T03:42:43.747Z,4.07
2023-05-07T03:45:11.152Z,5.00
2023-05-07T03:47:40.663Z,6.15
2023-05-07T03:50:09.035Z,7.15
2023-05-07T03:52:35.645Z,4.53
2023-05-07T03:55:03.318Z,5.60
2023-05-07T03:57:32.166Z,6.38
2023-05-07T03:59:59.395Z,6.32
2023-05-07T04:02:26.292Z,6.68
2023-05-07T04:04:52.946Z,5.60
2023-05-07T04:07:19.413Z,6.25
2023-05-07T04:09:49.654Z,6.13
2023-05-07T04:12:16.265Z,4.15
2023-05-07T04:14:45.654Z,6.18
2023-05-07T04:17:12.610Z,8.02
2023-05-07T04:19:39.011Z,7.90
2023-05-07T04:22:05.354Z,4.75
2023-05-07T04:24:34.848Z,7.28
2023-05-07T04:27:02.579Z,7.88
2023-05-07T04:29:29.590Z,7.20
2023-05-07T04:31:57.289Z,3.55
2023-05-07T04:34:23.702Z,8.10
2023-05-07T04:36:50.689Z,4.53
2023-05-07T04:39:17.085Z,5.90
2023-05-07T04:41:46.258Z,6.05
2023-05-07T04:44:13.183Z,4.75
2023-05-07T04:46:39.595Z,3.75
2023-05-07T04:49:06.637Z,5.57
2023-05-07T04:51:33.565Z,5.93
2023-05-07T04:54:00.254Z,8.60
2023-05-07T04:56:30.696Z,4.15
2023-05-07T04:58:57.799Z,4.80
2023-05-07T05:01:24.644Z,5.93
2023-05-07T05:03:51.128Z,6.18
2023-05-07T05:06:19.070Z,5.70
2023-05-07T05:08:45.368Z,5.30
2023-05-07T05:11:12.392Z,5.63
2023-05-07T05:13:39.205Z,8.02
2023-05-07T05:16:11.866Z,7.60
2023-05-07T05:18:39.056Z,5.65
2023-05-07T05:21:05.971Z,5.68
2023-05-07T05:23:33.363Z,6.90
2023-05-07T05:25:59.929Z,4.78
2023-05-07T05:28:29.669Z,5.80
2023-05-07T05:30:56.562Z,6.03
2023-05-07T05:33:24.123Z,6.82
2023-05-07T05:35:50.875Z,6.57
2023-05-07T05:38:17.478Z,11.50
2023-05-07T05:40:44.286Z,7.22
2023-05-07T05:43:10.747Z,6.55
2023-05-07T05:45:38.174Z,8.00
2023-05-07T05:48:04.703Z,6.60
2023-05-07T05:50:31.494Z,5.57
2023-05-07T05:53:00.440Z,6.18
2023-05-07T05:55:28.392Z,5.15
2023-05-07T05:57:54.769Z,10.32
2023-05-07T06:00:23.422Z,8.23
2023-05-07T06:02:57.677Z,5.93
2023-05-07T06:05:25.400Z,7.03
2023-05-07T06:07:54.087Z,6.03
2023-05-07T06:10:21.078Z,7.35
2023-05-07T06:12:47.570Z,6.85
2023-05-07T06:15:14.266Z,6.57
2023-05-07T06:17:41.838Z,5.85
2023-05-07T06:20:10.034Z,6.90
2023-05-07T06:22:36.817Z,7.18
2023-05-07T06:25:03.918Z,7.95
2023-05-07T06:27:30.411Z,7.07
2023-05-07T06:29:57.365Z,5.22
2023-05-07T06:32:23.893Z,6.65
2023-05-07T06:34:52.042Z,8.52
2023-05-07T06:37:19.060Z,8.48
2023-05-07T06:40:00.031Z,6.03
2023-05-07T06:42:27.555Z,7.30
2023-05-07T06:44:58.453Z,5.97
2023-05-07T06:47:25.402Z,4.97
2023-05-07T06:49:54.473Z,6.45
2023-05-07T06:52:24.123Z,6.05
2023-05-07T06:54:51.350Z,4.65
2023-05-07T06:57:20.430Z,4.80
2023-05-07T06:59:46.787Z,4.93
2023-05-07T07:02:13.178Z,4.32
2023-05-07T07:04:41.009Z,8.30
2023-05-07T07:07:10.225Z,5.50
2023-05-07T07:09:36.897Z,4.53
2023-05-07T07:12:05.195Z,7.28
2023-05-07T07:14:31.821Z,5.05
2023-05-07T07:16:58.582Z,7.05
2023-05-07T07:19:27.201Z,7.28
2023-05-07T07:21:55.402Z,6.75
2023-05-07T07:24:22.270Z,6.80
2023-05-07T07:26:52.513Z,6.63
2023-05-07T07:29:20.682Z,10.23
2023-05-07T07:31:49.903Z,8.55
2023-05-07T07:34:17.749Z,5.20
2023-05-07T07:36:46.521Z,8.15
2023-05-07T07:39:16.854Z,6.38
2023-05-07T07:41:44.295Z,8.80
2023-05-07T07:44:16.068Z,5.03
2023-05-07T07:46:43.880Z,7.50
2023-05-07T07:49:10.408Z,5.05
2023-05-07T07:51:37.214Z,7.60
2023-05-07T07:54:04.023Z,10.10
2023-05-07T07:56:34.587Z,7.97
2023-05-07T07:59:02.226Z,5.30
2023-05-07T08:01:31.329Z,8.88
2023-05-07T08:04:01.416Z,7.80
2023-05-07T08:06:29.897Z,9.15
2023-05-07T08:08:56.383Z,8.23
2023-05-07T08:11:23.387Z,9.75
2023-05-07T08:13:51.257Z,7.55
2023-05-07T08:16:18.198Z,9.63
2023-05-07T08:18:44.650Z,8.05
2023-05-07T08:21:11.642Z,7.68
2023-05-07T08:23:38.306Z,6.90
2023-05-07T08:26:05.523Z,7.40
2023-05-07T08:28:32.486Z,10.13
2023-05-07T08:31:01.350Z,6.32
2023-05-07T08:33:31.941Z,6.68
2023-05-07T08:35:58.466Z,7.50
2023-05-07T08:38:25.280Z,7.93
2023-05-07T08:40:51.820Z,8.27
2023-05-07T08:43:20.508Z,6.97
2023-05-07T08:45:50.188Z,8.38
2023-05-07T08:48:18.711Z,10.10
2023-05-07T08:50:53.116Z,6.50
2023-05-07T08:53:21.515Z,6.38
2023-05-07T08:55:49.776Z,6.38
2023-05-07T08:58:16.410Z,7.10
2023-05-07T09:00:43.533Z,9.07
2023-05-07T09:03:13.397Z,7.47
2023-05-07T09:05:41.731Z,6.72
2023-05-07T09:08:08.996Z,7.10
2023-05-07T09:10:37.211Z,7.53
2023-05-07T09:13:05.398Z,6.65
2023-05-07T09:15:31.963Z,10.57
2023-05-07T09:18:02.381Z,7.72
2023-05-07T09:20:31.658Z,7.65
2023-05-07T09:22:58.502Z,7.78
2023-05-07T09:25:33.326Z,8.40
2023-05-07T09:28:08.054Z,7.13
2023-05-07T09:30:35.508Z,10.05
2023-05-07T09:33:05.075Z,9.38
2023-05-07T09:35:34.025Z,7.90
2023-05-07T09:38:05.778Z,10.18
2023-05-07T09:40:35.027Z,8.07
2023-05-07T09:43:14.034Z,7.30
2023-05-07T09:48:19.249Z,9.18
2023-05-07T09:50:52.333Z,9.35
2023-05-07T09:53:23.554Z,8.40
2023-05-07T09:55:52.564Z,9.20
2023-05-07T09:58:21.646Z,7.18
2023-05-07T10:00:48.995Z,6.60
2023-05-07T10:03:16.147Z,12.32
2023-05-07T10:05:51.417Z,8.05
2023-05-07T10:08:20.825Z,8.10
2023-05-07T10:10:50.002Z,12.43
2023-05-07T10:13:21.212Z,9.55
2023-05-07T10:15:51.218Z,8.13
2023-05-07T10:18:23.382Z,8.15
2023-05-07T10:20:52.980Z,7.82
2023-05-07T10:23:24.231Z,7.68
2023-05-07T10:26:00.452Z,10.65
2023-05-07T10:28:31.600Z,7.10
2023-05-07T10:31:35.787Z,8.00
2023-05-07T10:34:09.597Z,8.30
2023-05-07T10:36:38.391Z,10.07
2023-05-07T10:39:06.947Z,8.57
2023-05-07T10:41:33.847Z,9.68
2023-05-07T10:44:02.983Z,7.35
2023-05-07T10:46:36.120Z,6.57
2023-05-07T10:49:24.525Z,8.90
2023-05-07T10:52:16.709Z,10.35
2023-05-07T10:55:22.121Z,8.48
2023-05-07T10:58:31.201Z,5.38
2023-05-07T11:01:08.557Z,7.00
2023-05-07T11:04:15.368Z,4.63
2023-05-07T11:07:37.403Z,7.28
2023-05-07T11:12:45.412Z,13.07
2023-05-07T11:15:35.266Z,12.80
2023-05-07T11:18:04.824Z,17.63
2023-05-07T11:20:58.708Z,7.15
2023-05-07T11:23:58.082Z,9.35
2023-05-07T11:26:42.499Z,6.45
2023-05-07T11:29:21.821Z,7.40
2023-05-07T11:31:53.294Z,9.50
2023-05-07T11:34:25.545Z,9.75
2023-05-07T11:36:54.289Z,11.15
2023-05-07T11:39:36.949Z,9.55
2023-05-07T11:42:03.899Z,5.10
2023-05-07T11:44:46.925Z,4.03
2023-05-07T11:47:19.504Z,3.42
2023-05-07T11:49:50.465Z,4.03
2023-05-07T11:54:56.826Z,6.13
2023-05-07T11:57:24.729Z,4.60
2023-05-07T11:59:59.137Z,3.00
2023-05-07T12:02:26.737Z,4.60
2023-05-07T12:04:54.289Z,3.47
2023-05-07T12:07:21.185Z,5.10
2023-05-07T12:09:48.439Z,3.72
2023-05-07T12:12:18.350Z,5.60
2023-05-07T12:14:46.140Z,2.85
2023-05-07T12:17:14.262Z,3.80
2023-05-07T12:19:43.518Z,3.95
2023-05-07T12:22:10.684Z,4.45
2023-05-07T12:24:50.651Z,3.13
2023-05-07T12:27:18.169Z,8.27
2023-05-07T12:29:47.700Z,4.75
2023-05-07T12:32:16.109Z,5.30
2023-05-07T12:34:45.488Z,5.10
2023-05-07T12:37:13.654Z,4.70
2023-05-07T12:39:48.664Z,3.40
2023-05-07T12:42:26.481Z,3.92
2023-05-07T12:44:53.198Z,4.68
2023-05-07T12:47:19.645Z,3.05
2023-05-07T12:49:47.053Z,4.45
2023-05-07T12:52:13.910Z,4.07
2023-05-07T12:54:40.344Z,3.60
2023-05-07T12:57:08.754Z,4.63
2023-05-07T12:59:42.372Z,4.72
2023-05-07T13:02:09.844Z,3.13
2023-05-07T13:04:38.006Z,3.80
2023-05-07T13:07:04.388Z,4.93
2023-05-07T13:09:32.167Z,3.92
2023-05-07T13:12:02.157Z,4.00
2023-05-07T13:14:28.501Z,4.22
2023-05-07T13:16:54.850Z,4.03
2023-05-07T13:19:21.535Z,3.65
2023-05-07T13:21:47.874Z,4.30
2023-05-07T13:24:14.184Z,6.07
2023-05-07T13:26:40.494Z,4.65
2023-05-07T13:29:06.778Z,5.57
2023-05-07T13:31:34.741Z,6.30
2023-05-07T13:34:01.128Z,4.15
2023-05-07T13:36:27.744Z,6.57
2023-05-07T13:38:54.047Z,3.78
2023-05-07T13:41:20.997Z,4.30
2023-05-07T13:43:47.306Z,5.00
2023-05-07T13:46:13.977Z,5.35
2023-05-07T13:48:40.579Z,4.55
2023-05-07T13:51:07.521Z,10.65
2023-05-07T13:53:33.830Z,3.90
2023-05-07T13:56:00.421Z,4.95
2023-05-07T13:58:26.692Z,3.03
2023-05-07T14:00:53.040Z,3.55
2023-05-07T14:03:20.630Z,5.30
2023-05-07T14:05:48.937Z,4.07
2023-05-07T14:08:18.484Z,4.20
2023-05-07T14:10:44.904Z,3.45
2023-05-07T14:13:11.621Z,3.22
2023-05-07T14:15:38.466Z,4.00
2023-05-07T14:18:04.994Z,5.45
2023-05-07T14:20:31.974Z,5.57
2023-05-07T14:22:58.357Z,3.97
2023-05-07T14:25:24.745Z,6.47
2023-05-07T14:27:51.989Z,8.27
2023-05-07T14:30:18.292Z,5.18
2023-05-07T14:32:44.706Z,5.85
2023-05-07T14:35:11.401Z,4.07
2023-05-07T14:37:37.956Z,6.28
2023-05-07T14:40:04.621Z,5.07
2023-05-07T14:42:31.263Z,7.93
2023-05-07T14:44:57.579Z,5.18
2023-05-07T14:47:23.920Z,4.57
2023-05-07T14:49:50.306Z,6.50
2023-05-07T14:52:16.640Z,6.60
2023-05-07T14:54:43.011Z,4.70
2023-05-07T14:57:10.938Z,5.10
2023-05-07T14:59:38.649Z,4.32
2023-05-07T15:02:07.365Z,5.22
2023-05-07T15:04:34.195Z,4.50
2023-05-07T15:07:01.060Z,5.35
2023-05-07T15:09:27.480Z,4.47
2023-05-07T15:11:53.774Z,3.65
2023-05-07T15:14:22.541Z,5.00
2023-05-07T15:16:50.144Z,4.65
2023-05-07T15:19:17.626Z,5.80
2023-05-07T15:21:43.961Z,4.88
2023-05-07T15:24:10.627Z,6.38
2023-05-07T15:26:37.010Z,3.78
2023-05-07T15:29:04.146Z,4.40
2023-05-07T15:31:30.813Z,4.28
2023-05-07T15:33:57.388Z,4.80
2023-05-07T15:36:23.736Z,4.55
2023-05-07T15:38:50.136Z,4.13
2023-05-07T15:41:16.443Z,4.88
2023-05-07T15:43:49.056Z,4.93
2023-05-07T15:46:24.369Z,4.38
2023-05-07T15:48:52.294Z,4.78
2023-05-07T15:51:19.220Z,5.97
2023-05-07T15:53:45.527Z,4.18
2023-05-07T15:56:12.019Z,4.82
2023-05-07T15:58:38.379Z,5.28
2023-05-07T16:01:05.267Z,6.18
2023-05-07T16:03:32.071Z,4.43
2023-05-07T16:06:00.665Z,4.70
2023-05-07T16:08:27.323Z,5.15
2023-05-07T16:10:53.903Z,5.95
2023-05-07T16:13:20.849Z,4.95
2023-05-07T16:15:48.129Z,6.43
2023-05-07T16:18:17.461Z,5.25
2023-05-07T16:20:43.824Z,4.70
2023-05-07T16:23:10.450Z,6.22
2023-05-07T16:25:36.749Z,6.03
2023-05-07T16:28:03.137Z,4.47
2023-05-07T16:30:29.470Z,4.72
2023-05-07T16:32:55.906Z,4.55
2023-05-07T16:35:22.354Z,6.45
2023-05-07T16:37:48.691Z,4.95
2023-05-07T16:40:15.154Z,6.05
2023-05-07T16:42:41.626Z,4.63
2023-05-07T16:45:08.769Z,5.55
2023-05-07T16:47:35.119Z,5.50
2023-05-07T16:50:01.740Z,4.13
2023-05-07T16:52:29.702Z,3.30
2023-05-07T16:54:58.302Z,3.45
2023-05-07T16:57:25.463Z,4.40
2023-05-07T16:59:52.722Z,6.68
2023-05-07T17:02:19.658Z,4.30
2023-05-07T17:04:45.948Z,4.20
2023-05-07T17:07:12.421Z,5.07
2023-05-07T17:09:38.878Z,4.15
2023-05-07T17:12:05.685Z,4.30
2023-05-07T17:14:32.067Z,3.85
2023-05-07T17:16:58.470Z,5.43
2023-05-07T17:19:24.800Z,5.93
2023-05-07T17:21:51.089Z,6.55
2023-05-07T17:24:17.528Z,7.45
2023-05-07T17:26:43.851Z,5.40
2023-05-07T17:29:10.249Z,3.80
2023-05-07T17:31:36.683Z,7.85
2023-05-07T17:34:03.163Z,6.90
2023-05-07T17:36:29.463Z,4.78
2023-05-07T17:38:55.841Z,5.57
2023-05-07T17:41:22.624Z,5.13
2023-05-07T17:43:48.962Z,5.07
2023-05-07T17:46:15.368Z,4.10
2023-05-07T17:48:41.755Z,7.78
2023-05-07T17:51:09.516Z,5.15
2023-05-07T17:53:36.062Z,4.18
2023-05-07T17:56:02.412Z,5.03
2023-05-07T17:58:28.799Z,5.78
2023-05-07T18:00:55.424Z,6.05
2023-05-07T18:03:24.266Z,9.70
2023-05-07T18:05:50.945Z,4.72
2023-05-07T18:08:17.239Z,7.95
2023-05-07T18:10:43.573Z,5.22
2023-05-07T18:13:10.047Z,6.38
2023-05-07T18:15:36.398Z,6.65
2023-05-07T18:18:02.857Z,7.75
2023-05-07T18:20:29.224Z,5.32
2023-05-07T18:22:55.699Z,7.82
2023-05-07T18:25:22.172Z,15.27
2023-05-07T18:27:48.469Z,16.92
2023-05-07T18:30:15.136Z,15.98
2023-05-07T18:32:41.620Z,11.32
2023-05-07T18:35:08.428Z,10.93
2023-05-07T18:37:34.748Z,9.77
2023-05-07T18:40:04.388Z,6.60
2023-05-07T18:42:31.627Z,6.70
2023-05-07T18:44:59.164Z,5.90
2023-05-07T18:47:25.504Z,6.78
2023-05-07T18:49:51.989Z,6.13
2023-05-07T18:52:20.993Z,9.15
2023-05-07T18:54:48.019Z,4.82
2023-05-07T18:57:14.369Z,6.78
2023-05-07T18:59:40.669Z,10.57
2023-05-07T19:02:06.989Z,7.93
2023-05-07T19:04:33.344Z,9.73
2023-05-07T19:06:59.664Z,5.70
2023-05-07T19:09:25.968Z,7.43
2023-05-07T19:11:52.427Z,7.50
2023-05-07T19:14:18.724Z,5.25
2023-05-07T19:16:45.167Z,4.30
2023-05-07T19:19:11.469Z,10.55
2023-05-07T19:21:37.849Z,7.72
2023-05-07T19:24:04.353Z,5.82
2023-05-07T19:26:30.748Z,7.57
2023-05-07T19:29:12.206Z,11.82
2023-05-07T19:31:42.610Z,9.40
2023-05-07T19:34:09.054Z,7.13
2023-05-07T19:36:35.366Z,8.20
2023-05-07T19:39:01.740Z,7.90
2023-05-07T19:41:28.637Z,10.20
2023-05-07T19:43:55.261Z,8.75
2023-05-07T19:46:21.960Z,9.38
2023-05-07T19:48:48.631Z,7.65
2023-05-07T19:51:14.971Z,7.78
2023-05-07T19:53:41.294Z,11.35
2023-05-07T19:56:09.569Z,8.65
2023-05-07T19:58:36.776Z,9.35
2023-05-07T20:01:04.332Z,9.88
2023-05-07T20:03:32.368Z,8.63
2023-05-07T20:05:59.274Z,7.53
2023-05-07T20:08:27.432Z,9.07
2023-05-07T20:10:53.807Z,7.10
2023-05-07T20:13:20.274Z,10.68
2023-05-07T20:15:46.619Z,5.65
2023-05-07T20:18:15.032Z,5.60
2023-05-07T20:20:41.758Z,7.85
2023-05-07T20:23:08.067Z,6.68
2023-05-07T20:25:34.403Z,7.53
2023-05-07T20:28:00.790Z,10.20
2023-05-07T20:30:27.669Z,9.70
2023-05-07T20:32:54.046Z,6.50
2023-05-07T20:35:20.432Z,8.60
2023-05-07T20:37:46.934Z,8.77
2023-05-07T20:40:13.775Z,9.10
2023-05-07T20:42:40.291Z,7.65
2023-05-07T20:45:07.779Z,7.40
2023-05-07T20:47:34.095Z,8.98
2023-05-07T20:50:00.737Z,9.52
2023-05-07T20:52:27.087Z,7.32
2023-05-07T20:54:53.605Z,13.70
2023-05-07T20:57:20.062Z,6.65
2023-05-07T20:59:46.424Z,11.90
2023-05-07T21:02:12.764Z,9.93
2023-05-07T21:04:39.179Z,5.30
2023-05-07T21:07:06.159Z,7.18
2023-05-07T21:09:32.738Z,6.20
2023-05-07T21:11:59.338Z,5.78
2023-05-07T21:14:25.692Z,6.65
2023-05-07T21:16:52.084Z,10.75
2023-05-07T21:19:18.549Z,8.30
2023-05-07T21:21:44.845Z,10.00
2023-05-07T21:24:11.435Z,8.25
2023-05-07T21:26:37.844Z,9.32
2023-05-07T21:29:04.586Z,8.07
2023-05-07T21:31:30.931Z,8.05
2023-05-07T21:33:57.429Z,9.07
2023-05-07T21:36:23.712Z,9.45
2023-05-07T21:38:50.197Z,10.52
2023-05-07T21:41:16.922Z,9.45
2023-05-07T21:43:43.228Z,10.27
2023-05-07T21:46:10.271Z,10.77
2023-05-07T21:48:36.768Z,8.63
2023-05-07T21:51:05.314Z,13.88
2023-05-07T21:53:31.917Z,14.48
2023-05-07T21:56:02.719Z,10.13
2023-05-07T21:58:30.700Z,12.18
2023-05-07T22:00:57.981Z,10.93
2023-05-07T22:03:24.468Z,13.60
2023-05-07T22:05:50.898Z,10.90
2023-05-07T22:08:17.226Z,15.50
2023-05-07T22:10:43.886Z,15.65
2023-05-07T22:13:10.273Z,13.85
2023-05-07T22:15:45.428Z,18.63
2023-05-07T22:18:19.974Z,17.25
2023-05-07T22:20:46.312Z,16.55
2023-05-07T22:23:12.628Z,14.23
2023-05-07T22:25:38.933Z,15.30
2023-05-07T22:28:05.801Z,16.10
2023-05-07T22:30:32.182Z,19.33
2023-05-07T22:32:58.518Z,16.65
2023-05-07T22:35:24.977Z,16.00
2023-05-07T22:37:51.293Z,16.70
2023-05-07T22:40:17.935Z,16.67
2023-05-07T22:42:44.329Z,22.02
2023-05-07T22:45:11.250Z,16.88
2023-05-07T22:47:37.654Z,19.02
2023-05-07T22:50:06.100Z,18.67
2023-05-07T22:52:33.845Z,20.60
2023-05-07T22:55:00.453Z,18.80
2023-05-07T22:57:26.820Z,15.10
2023-05-07T22:59:54.399Z,16.27
2023-05-07T23:02:20.867Z,18.75
2023-05-07T23:04:47.184Z,17.83
2023-05-07T23:07:13.500Z,14.50
2023-05-07T23:09:39.930Z,17.65
2023-05-07T23:12:06.317Z,19.65
2023-05-07T23:14:32.658Z,16.65
2023-05-07T23:16:58.994Z,17.02
2023-05-07T23:19:25.486Z,17.55
2023-05-07T23:21:52.145Z,15.50
2023-05-07T23:24:18.454Z,17.60
2023-05-07T23:26:44.757Z,17.50
2023-05-07T23:29:11.168Z,19.45
2023-05-07T23:31:37.793Z,18.63
2023-05-07T23:34:04.206Z,16.17
2023-05-07T23:36:32.482Z,16.58
2023-05-07T23:38:58.901Z,17.60
2023-05-07T23:41:25.656Z,18.10
2023-05-07T23:43:51.936Z,17.38
2023-05-07T23:46:18.440Z,22.58
2023-05-07T23:48:44.895Z,21.38
2023-05-07T23:51:11.413Z,19.55
2023-05-07T23:53:37.742Z,19.40
2023-05-07T23:56:04.284Z,15.18
2023-05-07T23:58:30.640Z,19.15
